createdAt,value
2022-08-11T00:01:16.438Z,99.90
2022-08-11T00:03:47.675Z,99.90
2022-08-11T00:06:25.967Z,99.90
2022-08-11T00:08:55.842Z,99.90
2022-08-11T00:11:33.065Z,99.90
2022-08-11T00:14:02.330Z,99.90
2022-08-11T00:16:32.002Z,99.90
2022-08-11T00:19:01.460Z,99.90
2022-08-11T00:21:54.695Z,99.90
2022-08-11T00:24:23.385Z,99.90
2022-08-11T00:26:56.041Z,1.00
2022-08-11T00:29:24.773Z,1.00
2022-08-11T00:31:56.551Z,1.00
2022-08-11T00:34:28.635Z,1.00
2022-08-11T00:37:02.342Z,1.00
2022-08-11T00:39:35.687Z,1.00
2022-08-11T00:42:16.396Z,1.00
2022-08-11T00:44:57.783Z,1.00
2022-08-11T00:47:36.654Z,1.00
2022-08-11T00:50:16.379Z,1.00
2022-08-11T00:53:25.091Z,1.00
2022-08-11T00:56:41.074Z,10.40
2022-08-11T00:59:51.037Z,99.90
2022-08-11T01:02:23.043Z,99.90
2022-08-11T01:05:48.620Z,99.90
2022-08-11T01:08:45.052Z,99.90
2022-08-11T01:11:55.368Z,99.90
2022-08-11T01:14:59.653Z,99.90
2022-08-11T01:18:14.252Z,99.90
2022-08-11T01:21:30.246Z,1.00
2022-08-11T01:24:53.806Z,1.00
2022-08-11T01:27:59.404Z,1.00
2022-08-11T01:30:54.165Z,1.00
2022-08-11T01:34:00.805Z,1.00
2022-08-11T01:36:59.850Z,24.70
2022-08-11T01:40:16.243Z,99.90
2022-08-11T01:43:45.091Z,1.00
2022-08-11T01:46:23.971Z,99.90
2022-08-11T01:50:05.895Z,1.00
2022-08-11T01:52:19.379Z,1.00
2022-08-11T01:55:11.685Z,1.00
2022-08-11T01:57:51.530Z,1.00
2022-08-11T02:00:24.169Z,1.00
2022-08-11T02:03:03.599Z,99.90
2022-08-11T02:06:01.910Z,99.90
2022-08-11T02:08:50.935Z,99.90
2022-08-11T02:11:37.548Z,99.90
2022-08-11T02:14:21.446Z,91.90
2022-08-11T02:17:15.560Z,99.90
2022-08-11T02:20:10.891Z,99.90
2022-08-11T02:23:11.089Z,99.90
2022-08-11T02:25:56.125Z,69.70
2022-08-11T02:28:38.760Z,99.90
2022-08-11T02:32:23.787Z,1.00
2022-08-11T02:34:43.371Z,1.00
2022-08-11T02:37:29.841Z,99.90
2022-08-11T02:40:21.873Z,1.00
2022-08-11T02:43:11.778Z,99.90
2022-08-11T02:45:55.296Z,99.90
2022-08-11T02:49:07.723Z,1.00
2022-08-11T02:51:47.006Z,12.70
2022-08-11T02:54:23.814Z,99.90
2022-08-11T02:57:02.326Z,99.90
2022-08-11T02:59:54.993Z,1.00
2022-08-11T03:02:38.467Z,99.90
2022-08-11T03:05:21.293Z,99.90
2022-08-11T03:08:18.912Z,99.90
2022-08-11T03:11:13.987Z,99.90
2022-08-11T03:14:07.958Z,99.90
2022-08-11T03:16:48.492Z,99.90
2022-08-11T03:19:28.456Z,99.90
2022-08-11T03:22:09.224Z,99.90
2022-08-11T03:24:59.917Z,99.90
2022-08-11T03:27:38.611Z,99.90
2022-08-11T03:30:13.222Z,99.90
2022-08-11T03:33:09.397Z,99.90
2022-08-11T03:35:44.939Z,99.90
2022-08-11T03:38:17.423Z,99.90
2022-08-11T03:42:01.363Z,99.90
2022-08-11T03:44:16.186Z,99.90
2022-08-11T03:47:07.083Z,1.00
2022-08-11T03:49:46.499Z,99.90
2022-08-11T03:52:34.542Z,1.00
2022-08-11T03:55:15.274Z,1.00
2022-08-11T03:58:25.449Z,1.00
2022-08-11T04:01:38.778Z,1.00
2022-08-11T04:04:54.160Z,1.00
2022-08-11T04:07:55.186Z,1.00
2022-08-11T04:11:11.413Z,1.00
2022-08-11T04:14:39.842Z,1.00
2022-08-11T04:17:35.902Z,1.00
2022-08-11T04:20:37.644Z,1.00
2022-08-11T04:24:33.218Z,1.00
2022-08-11T04:26:57.432Z,7.90
2022-08-11T04:30:09.116Z,99.90
2022-08-11T04:33:35.244Z,99.90
2022-08-11T04:36:14.907Z,29.80
2022-08-11T04:39:12.508Z,60.20
2022-08-11T04:42:57.649Z,1.00
2022-08-11T04:45:51.650Z,1.00
2022-08-11T04:49:02.277Z,1.00
2022-08-11T04:52:35.952Z,1.00
2022-08-11T04:55:47.818Z,1.00
2022-08-11T04:58:41.772Z,99.90
2022-08-11T05:01:44.475Z,99.90
2022-08-11T05:05:07.684Z,1.00
2022-08-11T05:08:21.910Z,1.00
2022-08-11T05:11:19.768Z,99.90
2022-08-11T05:14:07.847Z,99.90
2022-08-11T05:17:33.346Z,1.00
2022-08-11T05:20:19.772Z,99.90
2022-08-11T05:23:08.639Z,99.90
2022-08-11T05:26:43.689Z,99.90
2022-08-11T05:29:19.910Z,99.90
2022-08-11T05:32:17.824Z,99.90
2022-08-11T05:34:53.299Z,99.90
2022-08-11T05:37:29.800Z,99.90
2022-08-11T05:40:25.792Z,99.90
2022-08-11T05:43:16.545Z,99.90
2022-08-11T05:46:14.774Z,99.90
2022-08-11T05:49:01.506Z,38.80
2022-08-11T05:51:54.817Z,99.90
2022-08-11T05:54:46.176Z,1.00
2022-08-11T05:57:49.673Z,1.00
2022-08-11T06:00:13.012Z,1.00
2022-08-11T06:02:45.031Z,41.30
2022-08-11T06:05:14.812Z,29.10
2022-08-11T06:07:50.303Z,1.00
2022-08-11T06:10:43.954Z,1.00
2022-08-11T06:13:20.676Z,1.00
2022-08-11T06:15:52.273Z,1.00
2022-08-11T06:18:22.937Z,1.00
2022-08-11T06:20:54.365Z,1.00
2022-08-11T06:23:25.392Z,1.00
2022-08-11T06:25:56.375Z,1.00
2022-08-11T06:28:34.018Z,1.00
2022-08-11T06:31:06.028Z,1.00
2022-08-11T06:33:44.196Z,1.00
2022-08-11T06:36:17.323Z,1.00
2022-08-11T06:39:02.096Z,1.00
2022-08-11T06:41:39.554Z,1.00
2022-08-11T06:44:19.996Z,1.00
2022-08-11T06:46:51.618Z,1.00
2022-08-11T06:49:41.500Z,1.00
2022-08-11T06:52:35.658Z,1.00
2022-08-11T06:55:12.626Z,99.90
2022-08-11T06:58:15.505Z,99.90
2022-08-11T07:00:45.374Z,99.90
2022-08-11T07:03:19.397Z,99.90
2022-08-11T07:05:53.792Z,99.90
2022-08-11T07:09:16.933Z,99.90
2022-08-11T07:12:28.111Z,99.90
2022-08-11T07:15:16.047Z,99.90
2022-08-11T07:17:50.035Z,99.90
2022-08-11T07:20:37.348Z,99.90
2022-08-11T07:23:28.822Z,99.90
2022-08-11T07:26:33.711Z,99.90
2022-08-11T07:29:04.099Z,99.90
2022-08-11T07:31:37.375Z,99.90
2022-08-11T07:34:18.809Z,99.90
2022-08-11T07:36:52.584Z,99.90
2022-08-11T07:39:25.138Z,99.90
2022-08-11T07:41:57.503Z,99.90
2022-08-11T07:44:34.757Z,99.90
2022-08-11T07:47:21.821Z,99.90
2022-08-11T07:50:09.427Z,99.90
2022-08-11T07:52:44.267Z,99.90
2022-08-11T07:55:17.907Z,99.90
2022-08-11T07:58:16.295Z,99.90
2022-08-11T08:01:21.913Z,99.90
2022-08-11T08:04:09.660Z,99.90
2022-08-11T08:06:56.610Z,99.90
2022-08-11T08:09:44.477Z,99.90
2022-08-11T08:12:33.967Z,99.90
2022-08-11T08:15:25.515Z,99.90
2022-08-11T08:18:09.248Z,99.90
2022-08-11T08:20:50.205Z,99.90
2022-08-11T08:23:33.925Z,99.90
2022-08-11T08:26:29.391Z,99.90
2022-08-11T08:29:16.300Z,99.90
2022-08-11T08:31:46.400Z,99.90
2022-08-11T08:34:16.467Z,99.90
2022-08-11T08:36:47.309Z,99.90
2022-08-11T08:39:16.962Z,99.90
2022-08-11T08:41:46.912Z,99.90
2022-08-11T08:47:11.863Z,99.90
2022-08-11T08:49:46.661Z,99.90
2022-08-11T08:52:30.724Z,99.90
2022-08-11T08:55:05.852Z,99.90
2022-08-11T08:57:39.337Z,99.90
2022-08-11T09:00:12.580Z,99.90
2022-08-11T09:02:43.761Z,99.90
2022-08-11T09:05:13.936Z,99.90
2022-08-11T09:07:43.484Z,99.90
2022-08-11T09:10:13.184Z,99.90
2022-08-11T09:12:43.794Z,99.90
2022-08-11T09:15:19.692Z,99.90
2022-08-11T09:17:50.580Z,99.90
2022-08-11T09:20:22.335Z,99.90
2022-08-11T09:26:17.705Z,99.90
2022-08-11T09:28:48.039Z,99.90
2022-08-11T09:31:21.958Z,99.90
2022-08-11T09:33:53.989Z,99.90
2022-08-11T09:36:40.588Z,99.90
2022-08-11T09:39:27.118Z,99.90
2022-08-11T09:42:02.832Z,99.90
2022-08-11T09:44:49.127Z,99.90
2022-08-11T09:47:25.054Z,99.90
2022-08-11T09:50:00.797Z,99.90
2022-08-11T09:52:33.632Z,99.90
2022-08-11T09:55:06.645Z,99.90
2022-08-11T09:57:55.105Z,99.90
2022-08-11T10:00:30.481Z,99.90
2022-08-11T10:03:02.903Z,99.90
2022-08-11T10:05:49.779Z,99.90
2022-08-11T10:08:20.550Z,99.90
2022-08-11T10:10:50.704Z,99.90
2022-08-11T10:14:04.893Z,99.90
2022-08-11T10:16:16.819Z,99.90
2022-08-11T10:18:53.282Z,99.90
2022-08-11T10:21:35.104Z,99.90
2022-08-11T10:24:23.563Z,99.90
2022-08-11T10:27:00.261Z,99.90
2022-08-11T10:29:51.965Z,99.90
2022-08-11T10:32:58.102Z,99.90
2022-08-11T10:35:31.329Z,99.90
2022-08-11T10:38:06.145Z,99.90
2022-08-11T10:40:42.687Z,99.90
2022-08-11T10:43:14.527Z,1.00
2022-08-11T10:46:29.936Z,1.00
2022-08-11T10:49:00.658Z,1.00
2022-08-11T10:51:50.641Z,1.00
2022-08-11T10:54:39.749Z,1.00
2022-08-11T10:57:26.240Z,99.90
2022-08-11T10:59:57.628Z,99.90
2022-08-11T11:02:27.576Z,99.90
2022-08-11T11:05:09.613Z,99.90
2022-08-11T11:07:48.568Z,99.90
2022-08-11T11:10:18.293Z,99.90
2022-08-11T11:13:08.282Z,99.90
2022-08-11T11:15:56.266Z,99.90
2022-08-11T11:18:28.997Z,99.90
2022-08-11T11:21:00.968Z,99.90
2022-08-11T11:23:39.683Z,99.90
2022-08-11T11:26:35.113Z,99.90
2022-08-11T11:29:29.017Z,99.90
2022-08-11T11:32:23.171Z,99.90
2022-08-11T11:35:26.885Z,99.90
2022-08-11T11:38:04.908Z,99.90
2022-08-11T11:40:37.666Z,99.90
2022-08-11T11:43:08.617Z,99.90
2022-08-11T11:45:37.664Z,99.90
2022-08-11T11:48:07.626Z,99.90
2022-08-11T11:50:39.070Z,99.90
2022-08-11T11:53:09.642Z,99.90
2022-08-11T11:55:40.840Z,99.90
2022-08-11T11:58:28.279Z,99.90
2022-08-11T12:01:15.556Z,99.90
2022-08-11T12:03:48.327Z,99.90
2022-08-11T12:06:18.742Z,99.90
2022-08-11T12:08:51.638Z,99.90
2022-08-11T12:11:43.519Z,99.90
2022-08-11T12:14:13.653Z,99.90
2022-08-11T12:16:45.011Z,99.90
2022-08-11T12:19:15.961Z,99.90
2022-08-11T12:22:00.923Z,99.90
2022-08-11T12:24:48.681Z,99.90
2022-08-11T12:27:24.966Z,99.90
2022-08-11T12:29:56.765Z,99.90
2022-08-11T12:32:27.652Z,99.90
2022-08-11T12:34:58.180Z,99.90
2022-08-11T12:37:31.655Z,99.90
2022-08-11T12:40:42.668Z,99.90
2022-08-11T12:43:38.466Z,99.90
2022-08-11T12:46:10.441Z,99.90
2022-08-11T12:49:03.319Z,99.90
2022-08-11T12:52:12.417Z,99.90
2022-08-11T12:54:59.997Z,99.90
2022-08-11T12:57:51.496Z,99.90
2022-08-11T13:00:39.748Z,99.90
2022-08-11T13:03:28.273Z,99.90
2022-08-11T13:05:59.816Z,99.90
2022-08-11T13:08:30.127Z,99.90
2022-08-11T13:11:18.971Z,99.90
2022-08-11T13:13:55.128Z,99.90
2022-08-11T13:16:30.290Z,99.90
2022-08-11T13:19:01.667Z,99.90
2022-08-11T13:21:31.324Z,99.90
2022-08-11T13:24:03.015Z,99.90
2022-08-11T13:26:47.254Z,99.90
2022-08-11T13:29:20.472Z,99.90
2022-08-11T13:31:51.389Z,99.90
2022-08-11T13:34:21.716Z,99.90
2022-08-11T13:36:53.768Z,99.90
2022-08-11T13:39:24.419Z,99.90
2022-08-11T13:41:57.039Z,99.90
2022-08-11T13:44:28.570Z,99.90
2022-08-11T13:47:04.551Z,99.90
2022-08-11T13:49:34.167Z,99.90
2022-08-11T13:52:04.162Z,99.90
2022-08-11T13:54:36.398Z,99.90
2022-08-11T13:57:13.825Z,99.90
2022-08-11T14:00:14.534Z,99.90
2022-08-11T14:02:59.635Z,99.90
2022-08-11T14:05:32.422Z,99.90
2022-08-11T14:08:03.806Z,99.90
2022-08-11T14:10:35.355Z,99.90
2022-08-11T14:13:26.669Z,99.90
2022-08-11T14:15:57.574Z,99.90
2022-08-11T14:18:30.439Z,99.90
2022-08-11T14:21:19.372Z,99.90
2022-08-11T14:23:50.980Z,99.90
2022-08-11T14:26:26.581Z,99.90
2022-08-11T14:28:59.455Z,99.90
2022-08-11T14:31:30.873Z,99.90
2022-08-11T14:34:04.602Z,99.90
2022-08-11T14:36:36.839Z,99.90
2022-08-11T14:39:13.511Z,99.90
2022-08-11T14:42:07.611Z,99.90
2022-08-11T14:45:01.026Z,99.90
2022-08-11T14:47:32.231Z,99.90
2022-08-11T14:50:11.724Z,99.90
2022-08-11T14:52:47.095Z,99.90
2022-08-11T14:55:33.938Z,99.90
2022-08-11T14:58:04.223Z,99.90
2022-08-11T15:00:35.603Z,99.90
2022-08-11T15:03:11.439Z,99.90
2022-08-11T15:05:56.473Z,99.90
2022-08-11T15:08:48.920Z,99.90
2022-08-11T15:11:39.892Z,99.90
2022-08-11T15:14:10.261Z,99.90
2022-08-11T15:16:59.019Z,99.90
2022-08-11T15:19:40.212Z,99.90
2022-08-11T15:22:29.374Z,99.90
2022-08-11T15:25:00.387Z,99.90
2022-08-11T15:27:48.954Z,99.90
2022-08-11T15:30:35.608Z,99.90
2022-08-11T15:33:25.254Z,99.90
2022-08-11T15:36:13.213Z,99.90
2022-08-11T15:38:55.525Z,99.90
2022-08-11T15:41:58.487Z,99.90
2022-08-11T15:45:03.502Z,99.90
2022-08-11T15:47:41.613Z,99.90
2022-08-11T15:50:15.937Z,99.90
2022-08-11T15:52:51.245Z,99.90
2022-08-11T15:55:23.830Z,99.90
2022-08-11T15:58:12.462Z,99.90
2022-08-11T16:01:03.903Z,99.90
2022-08-11T16:04:08.042Z,99.90
2022-08-11T16:06:47.709Z,99.90
2022-08-11T16:09:23.820Z,99.90
2022-08-11T16:11:56.141Z,99.90
2022-08-11T16:14:45.350Z,99.90
2022-08-11T16:17:21.549Z,99.90
2022-08-11T16:19:55.518Z,99.90
2022-08-11T16:22:37.113Z,99.90
2022-08-11T16:26:30.278Z,99.90
2022-08-11T16:28:04.791Z,99.90
2022-08-11T16:30:35.795Z,99.90
2022-08-11T16:33:48.890Z,99.90
2022-08-11T16:36:15.263Z,99.90
2022-08-11T16:38:46.544Z,99.90
2022-08-11T16:41:39.899Z,99.90
2022-08-11T16:44:32.783Z,99.90
2022-08-11T16:47:09.337Z,99.90
2022-08-11T16:49:40.993Z,99.90
2022-08-11T16:52:13.112Z,99.90
2022-08-11T16:54:44.580Z,99.90
2022-08-11T16:57:34.740Z,99.90
2022-08-11T17:00:09.039Z,99.90
2022-08-11T17:03:00.443Z,99.90
2022-08-11T17:05:54.363Z,99.90
2022-08-11T17:08:54.260Z,99.90
2022-08-11T17:11:46.520Z,99.90
2022-08-11T17:14:35.548Z,99.90
2022-08-11T17:17:14.793Z,99.90
2022-08-11T17:20:41.124Z,99.90
2022-08-11T17:22:57.981Z,99.90
2022-08-11T17:25:59.901Z,99.90
2022-08-11T17:28:24.759Z,99.90
2022-08-11T17:31:22.460Z,99.90
2022-08-11T17:34:14.968Z,99.90
2022-08-11T17:36:46.389Z,99.90
2022-08-11T17:39:16.299Z,99.90
2022-08-11T17:42:04.181Z,99.90
2022-08-11T17:44:53.936Z,99.90
2022-08-11T17:47:43.914Z,99.90
2022-08-11T17:50:22.787Z,99.90
2022-08-11T17:53:10.718Z,99.90
2022-08-11T17:55:59.066Z,99.90
2022-08-11T17:58:46.158Z,99.90
2022-08-11T18:01:17.530Z,99.90
2022-08-11T18:03:57.942Z,99.90
2022-08-11T18:06:33.718Z,99.90
2022-08-11T18:09:25.671Z,99.90
2022-08-11T18:12:14.855Z,99.90
2022-08-11T18:15:05.146Z,99.90
2022-08-11T18:17:53.202Z,99.90
2022-08-11T18:20:43.239Z,99.90
2022-08-11T18:23:40.619Z,99.90
2022-08-11T18:29:42.469Z,99.90
2022-08-11T18:32:49.256Z,99.90
2022-08-11T18:35:37.341Z,99.90
2022-08-11T18:38:25.369Z,99.90
2022-08-11T18:41:16.215Z,99.90
2022-08-11T18:44:07.099Z,99.90
2022-08-11T18:46:57.631Z,99.90
2022-08-11T18:50:03.592Z,99.90
2022-08-11T18:52:54.302Z,99.90
2022-08-11T18:55:42.062Z,99.90
2022-08-11T18:58:33.668Z,99.90
2022-08-11T19:01:25.326Z,99.90
2022-08-11T19:04:17.115Z,99.90
2022-08-11T19:07:08.690Z,99.90
2022-08-11T19:09:59.372Z,99.90
2022-08-11T19:12:48.425Z,99.90
2022-08-11T19:15:37.376Z,99.90
2022-08-11T19:18:26.365Z,99.90
2022-08-11T19:21:14.273Z,99.90
2022-08-11T19:24:03.955Z,99.90
2022-08-11T19:26:53.328Z,99.90
2022-08-11T19:30:06.955Z,99.90
2022-08-11T19:32:49.017Z,99.90
2022-08-11T19:35:35.985Z,99.90
2022-08-11T19:38:22.859Z,99.90
2022-08-11T19:41:09.217Z,99.90
2022-08-11T19:43:58.497Z,99.90
2022-08-11T19:46:46.614Z,99.90
2022-08-11T19:49:35.741Z,99.90
2022-08-11T19:52:22.574Z,99.90
2022-08-11T19:55:09.717Z,99.90
2022-08-11T19:57:57.281Z,99.90
2022-08-11T20:00:43.611Z,99.90
2022-08-11T20:03:31.931Z,99.90
2022-08-11T20:06:22.892Z,99.90
2022-08-11T20:09:12.495Z,1.00
2022-08-11T20:12:06.405Z,1.00
2022-08-11T20:14:55.825Z,1.00
2022-08-11T20:17:47.621Z,1.00
2022-08-11T20:20:36.336Z,1.00
2022-08-11T20:23:27.512Z,1.00
2022-08-11T20:26:32.558Z,1.00
2022-08-11T20:29:20.768Z,1.00
2022-08-11T20:32:09.758Z,1.00
2022-08-11T20:34:58.349Z,1.00
2022-08-11T20:37:50.187Z,1.00
2022-08-11T20:40:41.616Z,1.00
2022-08-11T20:44:07.795Z,1.00
2022-08-11T20:46:38.554Z,1.00
2022-08-11T20:49:44.278Z,1.00
2022-08-11T20:52:35.764Z,1.00
2022-08-11T20:55:26.018Z,1.00
2022-08-11T20:58:48.092Z,1.00
2022-08-11T21:01:41.372Z,1.00
2022-08-11T21:04:28.544Z,1.00
2022-08-11T21:07:27.498Z,1.00
2022-08-11T21:10:24.024Z,1.00
2022-08-11T21:13:24.253Z,1.00
2022-08-11T21:16:25.714Z,1.00
2022-08-11T21:19:18.539Z,1.00
2022-08-11T21:22:06.751Z,1.00
2022-08-11T21:24:55.027Z,1.00
2022-08-11T21:27:42.723Z,1.00
2022-08-11T21:30:29.904Z,1.00
2022-08-11T21:33:19.379Z,1.00
2022-08-11T21:36:05.517Z,1.00
2022-08-11T21:38:51.841Z,1.00
2022-08-11T21:41:38.781Z,1.00
2022-08-11T21:44:27.089Z,1.00
2022-08-11T21:47:14.382Z,1.00
2022-08-11T21:50:04.914Z,1.00
2022-08-11T21:52:52.201Z,1.00
2022-08-11T21:55:39.145Z,1.00
2022-08-11T21:58:26.888Z,1.00
2022-08-11T22:01:14.195Z,1.00
2022-08-11T22:04:01.449Z,1.00
2022-08-11T22:06:51.338Z,1.00
2022-08-11T22:09:37.594Z,1.00
2022-08-11T22:12:35.222Z,1.00
2022-08-11T22:15:23.774Z,13.40
2022-08-11T22:18:10.260Z,42.30
2022-08-11T22:20:58.020Z,20.90
2022-08-11T22:23:47.466Z,63.20
2022-08-11T22:26:34.394Z,90.80
2022-08-11T22:29:20.796Z,99.90
2022-08-11T22:32:29.804Z,99.90
2022-08-11T22:35:17.380Z,99.90
2022-08-11T22:38:05.485Z,99.90
2022-08-11T22:40:53.992Z,99.90
2022-08-11T22:43:40.504Z,99.90
2022-08-11T22:46:26.834Z,99.90
2022-08-11T22:49:14.638Z,99.90
2022-08-11T22:52:02.915Z,99.90
2022-08-11T22:54:50.593Z,99.90
2022-08-11T22:57:39.096Z,99.90
2022-08-11T23:00:30.672Z,99.90
2022-08-11T23:03:34.288Z,99.90
2022-08-11T23:09:12.113Z,99.90
2022-08-11T23:12:02.520Z,99.90
2022-08-11T23:14:56.539Z,99.90
2022-08-11T23:17:43.590Z,99.90
2022-08-11T23:20:34.364Z,99.90
2022-08-11T23:23:30.346Z,99.90
2022-08-11T23:26:17.537Z,99.90
2022-08-11T23:29:06.070Z,99.90
2022-08-11T23:31:55.122Z,99.90
2022-08-11T23:35:03.642Z,99.90
2022-08-11T23:37:52.234Z,99.90
2022-08-11T23:40:38.534Z,99.90
2022-08-11T23:43:24.688Z,99.90
2022-08-11T23:46:10.977Z,99.90
2022-08-11T23:48:58.893Z,99.90
2022-08-11T23:51:46.825Z,99.90
2022-08-11T23:54:37.426Z,99.90
2022-08-11T23:57:24.401Z,1.00
